createdAt,value
2023-04-16T00:00:03.470Z,10.48
2023-04-16T00:01:42.717Z,10.73
2023-04-16T00:03:15.750Z,10.80
2023-04-16T00:04:47.984Z,11.65
2023-04-16T00:06:19.796Z,10.55
2023-04-16T00:07:52.081Z,11.80
2023-04-16T00:09:23.912Z,10.65
2023-04-16T00:10:55.763Z,10.18
2023-04-16T00:12:27.613Z,12.20
2023-04-16T00:13:59.516Z,10.70
2023-04-16T00:15:31.310Z,10.50
2023-04-16T00:17:03.248Z,10.80
2023-04-16T00:18:35.101Z,10.88
2023-04-16T00:20:09.081Z,10.63
2023-04-16T00:21:41.044Z,10.23
2023-04-16T00:23:12.838Z,9.90
2023-04-16T00:24:44.625Z,10.93
2023-04-16T00:26:16.415Z,12.18
2023-04-16T00:27:50.419Z,11.82
2023-04-16T00:29:22.260Z,11.10
2023-04-16T00:30:54.918Z,11.13
2023-04-16T00:32:26.899Z,11.07
2023-04-16T00:33:59.647Z,10.85
2023-04-16T00:35:31.510Z,10.35
2023-04-16T00:37:03.430Z,10.43
2023-04-16T00:38:35.324Z,11.10
2023-04-16T00:40:08.101Z,14.48
2023-04-16T00:41:39.943Z,10.20
2023-04-16T00:43:11.784Z,11.50
2023-04-16T00:44:43.615Z,9.88
2023-04-16T00:46:16.933Z,10.23
2023-04-16T00:47:49.034Z,9.98
2023-04-16T00:49:21.093Z,9.82
2023-04-16T00:50:52.930Z,10.90
2023-04-16T00:52:26.191Z,10.40
2023-04-16T00:53:58.211Z,8.98
2023-04-16T00:55:30.096Z,9.57
2023-04-16T00:57:03.166Z,9.73
2023-04-16T00:58:36.061Z,9.80
2023-04-16T01:00:08.874Z,9.43
2023-04-16T01:01:40.744Z,9.82
2023-04-16T01:03:12.985Z,9.80
2023-04-16T01:04:44.887Z,10.30
2023-04-16T01:06:18.341Z,9.98
2023-04-16T01:07:51.450Z,10.55
2023-04-16T01:09:23.301Z,10.23
2023-04-16T01:10:55.074Z,10.02
2023-04-16T01:12:26.960Z,8.70
2023-04-16T01:13:58.792Z,10.65
2023-04-16T01:15:30.746Z,9.52
2023-04-16T01:17:04.007Z,9.35
2023-04-16T01:18:36.916Z,9.70
2023-04-16T01:20:09.085Z,10.48
2023-04-16T01:21:41.158Z,8.88
2023-04-16T01:23:13.064Z,9.80
2023-04-16T01:24:45.730Z,9.48
2023-04-16T01:26:17.519Z,8.93
2023-04-16T01:27:50.115Z,8.40
2023-04-16T01:29:21.913Z,8.38
2023-04-16T01:30:55.079Z,8.90
2023-04-16T01:32:49.837Z,8.73
2023-04-16T01:34:21.676Z,9.95
2023-04-16T01:35:53.450Z,8.88
2023-04-16T01:37:25.664Z,10.77
2023-04-16T01:38:57.567Z,9.23
2023-04-16T01:40:29.366Z,11.10
2023-04-16T01:42:01.556Z,10.32
2023-04-16T01:43:33.425Z,8.50
2023-04-16T01:45:05.969Z,8.23
2023-04-16T01:46:38.208Z,10.23
2023-04-16T01:48:10.142Z,9.55
2023-04-16T01:49:42.745Z,8.48
2023-04-16T01:51:14.579Z,8.77
2023-04-16T01:52:46.947Z,8.93
2023-04-16T01:54:18.742Z,9.43
2023-04-16T01:55:50.526Z,9.25
2023-04-16T01:57:22.352Z,9.75
2023-04-16T01:58:54.597Z,10.55
2023-04-16T02:00:26.555Z,10.65
2023-04-16T02:02:06.481Z,9.90
2023-04-16T02:03:38.500Z,8.07
2023-04-16T02:05:10.453Z,8.98
2023-04-16T02:06:42.257Z,8.25
2023-04-16T02:08:14.088Z,9.43
2023-04-16T02:09:45.966Z,8.40
2023-04-16T02:11:17.771Z,9.73
2023-04-16T02:12:51.252Z,9.88
2023-04-16T02:14:25.725Z,8.70
2023-04-16T02:15:57.663Z,10.90
2023-04-16T02:17:41.269Z,10.13
2023-04-16T02:19:14.852Z,8.90
2023-04-16T02:20:48.227Z,7.57
2023-04-16T02:22:20.127Z,7.55
2023-04-16T02:23:52.495Z,8.60
2023-04-16T02:25:31.250Z,8.63
2023-04-16T02:27:04.039Z,10.90
2023-04-16T02:28:35.878Z,10.57
2023-04-16T02:30:08.456Z,9.75
2023-04-16T02:31:40.675Z,9.77
2023-04-16T02:33:13.747Z,9.05
2023-04-16T02:34:56.119Z,9.70
2023-04-16T02:36:28.039Z,9.82
2023-04-16T02:38:01.664Z,8.88
2023-04-16T02:39:33.454Z,9.82
2023-04-16T02:41:05.303Z,8.98
2023-04-16T02:42:38.980Z,10.20
2023-04-16T02:44:11.388Z,10.00
2023-04-16T02:45:43.601Z,10.00
2023-04-16T02:47:15.755Z,9.02
2023-04-16T02:48:47.572Z,9.73
2023-04-16T02:50:19.479Z,10.20
2023-04-16T02:51:51.297Z,9.73
2023-04-16T02:53:23.109Z,10.77
2023-04-16T02:54:55.604Z,10.05
2023-04-16T02:56:27.474Z,10.05
2023-04-16T02:57:59.284Z,10.25
2023-04-16T02:59:31.071Z,9.65
2023-04-16T03:01:03.096Z,9.25
2023-04-16T03:02:35.170Z,11.00
2023-04-16T03:04:07.164Z,10.48
2023-04-16T03:05:40.311Z,8.88
2023-04-16T03:07:13.103Z,9.32
2023-04-16T03:08:44.931Z,9.15
2023-04-16T03:10:17.100Z,9.00
2023-04-16T03:11:48.920Z,9.68
2023-04-16T03:13:20.901Z,9.07
2023-04-16T03:14:52.905Z,8.88
2023-04-16T03:16:25.185Z,7.93
2023-04-16T03:17:57.410Z,7.80
2023-04-16T03:19:29.738Z,8.88
2023-04-16T03:21:01.552Z,8.35
2023-04-16T03:22:33.383Z,9.02
2023-04-16T03:24:05.868Z,8.40
2023-04-16T03:25:40.679Z,8.98
2023-04-16T03:27:13.956Z,8.43
2023-04-16T03:28:45.816Z,8.68
2023-04-16T03:30:18.159Z,8.50
2023-04-16T03:31:50.043Z,8.52
2023-04-16T03:33:22.902Z,8.80
2023-04-16T03:34:56.233Z,9.07
2023-04-16T03:36:28.447Z,8.80
2023-04-16T03:38:01.218Z,7.93
2023-04-16T03:39:34.552Z,8.30
2023-04-16T03:41:06.487Z,9.25
2023-04-16T03:42:38.824Z,8.98
2023-04-16T03:44:11.288Z,9.15
2023-04-16T03:45:46.945Z,8.80
2023-04-16T03:47:18.777Z,8.80
2023-04-16T03:48:51.419Z,8.05
2023-04-16T03:50:23.608Z,9.13
2023-04-16T03:51:55.685Z,8.20
2023-04-16T03:53:27.467Z,8.23
2023-04-16T03:55:02.146Z,8.40
2023-04-16T03:56:35.934Z,9.02
2023-04-16T03:58:07.839Z,8.60
2023-04-16T03:59:39.626Z,7.93
2023-04-16T04:01:11.461Z,7.85
2023-04-16T04:02:44.144Z,8.30
2023-04-16T04:04:22.520Z,9.18
2023-04-16T04:05:54.353Z,9.07
2023-04-16T04:07:34.858Z,9.27
2023-04-16T04:09:07.871Z,9.55
2023-04-16T04:10:39.862Z,8.13
2023-04-16T04:12:12.659Z,8.63
2023-04-16T04:13:45.974Z,7.97
2023-04-16T04:15:18.404Z,7.78
2023-04-16T04:16:50.239Z,7.85
2023-04-16T04:18:22.155Z,7.88
2023-04-16T04:20:01.320Z,7.78
2023-04-16T04:21:35.763Z,8.48
2023-04-16T04:23:09.564Z,8.65
2023-04-16T04:24:41.440Z,7.60
2023-04-16T04:26:13.335Z,8.10
2023-04-16T04:27:45.845Z,8.38
2023-04-16T04:29:17.648Z,8.43
2023-04-16T04:30:49.616Z,7.70
2023-04-16T04:32:21.637Z,7.65
2023-04-16T04:33:54.310Z,8.25
2023-04-16T04:35:26.337Z,8.88
2023-04-16T04:36:59.382Z,8.05
2023-04-16T04:38:31.650Z,8.27
2023-04-16T04:40:04.017Z,8.15
2023-04-16T04:41:36.329Z,8.20
2023-04-16T04:43:08.833Z,7.57
2023-04-16T04:44:40.901Z,8.70
2023-04-16T04:46:13.591Z,9.18
2023-04-16T04:47:46.173Z,8.45
2023-04-16T04:49:18.048Z,9.70
2023-04-16T04:50:49.848Z,9.73
2023-04-16T04:52:21.700Z,8.32
2023-04-16T04:53:55.643Z,8.18
2023-04-16T04:55:27.813Z,7.60
2023-04-16T04:56:59.638Z,10.07
2023-04-16T04:58:31.517Z,8.77
2023-04-16T05:00:04.331Z,9.45
2023-04-16T05:01:44.385Z,9.90
2023-04-16T05:03:21.547Z,10.18
2023-04-16T05:04:53.520Z,9.38
2023-04-16T05:06:26.804Z,9.65
2023-04-16T05:08:00.178Z,10.18
2023-04-16T05:09:32.074Z,9.95
2023-04-16T05:11:03.968Z,9.75
2023-04-16T05:12:35.901Z,9.82
2023-04-16T05:14:08.011Z,9.75
2023-04-16T05:15:40.194Z,8.95
2023-04-16T05:17:12.066Z,9.18
2023-04-16T05:18:43.901Z,9.23
2023-04-16T05:20:15.759Z,9.68
2023-04-16T05:21:47.552Z,9.15
2023-04-16T05:23:19.356Z,8.70
2023-04-16T05:24:51.365Z,9.35
2023-04-16T05:26:23.719Z,10.07
2023-04-16T05:27:55.605Z,10.25
2023-04-16T05:29:27.591Z,9.90
2023-04-16T05:30:59.449Z,10.35
2023-04-16T05:32:31.379Z,9.98
2023-04-16T05:34:03.224Z,10.88
2023-04-16T05:35:35.452Z,9.05
2023-04-16T05:37:07.436Z,9.68
2023-04-16T05:38:39.200Z,8.98
2023-04-16T05:40:13.407Z,8.27
2023-04-16T05:41:45.224Z,8.68
2023-04-16T05:43:17.101Z,9.00
2023-04-16T05:44:48.928Z,9.07
2023-04-16T05:46:20.831Z,8.95
2023-04-16T05:47:52.890Z,8.93
2023-04-16T05:49:24.701Z,9.60
2023-04-16T05:50:56.531Z,9.02
2023-04-16T05:52:28.392Z,9.18
2023-04-16T05:54:00.235Z,9.48
2023-04-16T05:55:32.305Z,9.13
2023-04-16T05:57:04.139Z,8.60
2023-04-16T05:58:35.958Z,8.05
2023-04-16T06:00:08.649Z,9.20
2023-04-16T06:01:46.658Z,8.73
2023-04-16T06:03:18.486Z,8.73
2023-04-16T06:04:50.535Z,8.70
2023-04-16T06:06:22.370Z,8.48
2023-04-16T06:07:54.530Z,9.43
2023-04-16T06:09:26.337Z,8.35
2023-04-16T06:10:58.212Z,9.30
2023-04-16T06:12:30.020Z,8.98
2023-04-16T06:14:01.819Z,9.77
2023-04-16T06:15:33.628Z,9.50
2023-04-16T06:17:05.507Z,10.07
2023-04-16T06:18:37.293Z,10.27
2023-04-16T06:20:09.616Z,9.27
2023-04-16T06:21:41.424Z,8.23
2023-04-16T06:23:13.233Z,9.20
2023-04-16T06:24:45.194Z,8.63
2023-04-16T06:26:16.970Z,8.80
2023-04-16T06:27:48.800Z,9.43
2023-04-16T06:29:24.040Z,9.25
2023-04-16T06:31:00.191Z,9.27
2023-04-16T06:32:32.034Z,7.88
2023-04-16T06:34:03.860Z,9.30
2023-04-16T06:35:36.076Z,8.68
2023-04-16T06:37:10.342Z,8.73
2023-04-16T06:38:42.902Z,8.35
2023-04-16T06:40:14.827Z,8.27
2023-04-16T06:41:46.666Z,11.23
2023-04-16T06:43:18.537Z,8.25
2023-04-16T06:44:50.370Z,8.65
2023-04-16T06:46:22.195Z,8.93
2023-04-16T06:47:54.238Z,8.35
2023-04-16T06:49:26.109Z,8.25
2023-04-16T06:50:57.945Z,7.95
2023-04-16T06:52:29.901Z,8.52
2023-04-16T06:54:01.747Z,8.95
2023-04-16T06:55:33.544Z,8.20
2023-04-16T06:57:05.445Z,8.75
2023-04-16T06:58:37.286Z,9.00
2023-04-16T07:00:09.872Z,8.50
2023-04-16T07:01:41.799Z,8.63
2023-04-16T07:03:13.795Z,8.15
2023-04-16T07:04:45.725Z,9.02
2023-04-16T07:06:17.500Z,9.05
2023-04-16T07:07:49.275Z,8.85
2023-04-16T07:09:21.187Z,8.20
2023-04-16T07:10:54.054Z,8.30
2023-04-16T07:12:26.023Z,8.70
2023-04-16T07:13:59.169Z,8.88
2023-04-16T07:15:31.088Z,9.10
2023-04-16T07:17:02.886Z,8.10
2023-04-16T07:18:34.686Z,8.55
2023-04-16T07:20:07.482Z,9.15
2023-04-16T07:21:39.523Z,8.15
2023-04-16T07:23:11.412Z,8.85
2023-04-16T07:24:43.258Z,9.02
2023-04-16T07:26:15.059Z,8.75
2023-04-16T07:27:46.882Z,8.98
2023-04-16T07:29:18.723Z,8.77
2023-04-16T07:30:50.494Z,7.72
2023-04-16T07:32:22.878Z,9.23
2023-04-16T07:33:54.789Z,8.50
2023-04-16T07:35:26.659Z,8.55
2023-04-16T07:36:58.469Z,8.95
2023-04-16T07:38:30.256Z,8.82
2023-04-16T07:40:02.095Z,8.77
2023-04-16T07:41:34.254Z,9.07
2023-04-16T07:43:06.040Z,9.68
2023-04-16T07:44:37.858Z,9.45
2023-04-16T07:46:09.655Z,10.05
2023-04-16T07:47:41.580Z,9.93
2023-04-16T07:49:13.465Z,9.35
2023-04-16T07:50:45.307Z,8.15
2023-04-16T07:52:17.092Z,9.15
2023-04-16T07:53:48.901Z,10.10
2023-04-16T07:55:20.854Z,9.02
2023-04-16T07:56:52.698Z,9.15
2023-04-16T07:58:24.533Z,10.10
2023-04-16T07:59:56.408Z,9.93
2023-04-16T08:01:28.292Z,8.93
2023-04-16T08:03:00.368Z,9.98
2023-04-16T08:04:32.523Z,9.38
2023-04-16T08:06:04.512Z,9.60
2023-04-16T08:07:36.485Z,9.60
2023-04-16T08:09:08.474Z,10.13
2023-04-16T08:10:40.480Z,10.43
2023-04-16T08:12:12.283Z,9.82
2023-04-16T08:13:44.220Z,9.73
2023-04-16T08:15:16.156Z,9.73
2023-04-16T08:16:47.959Z,9.50
2023-04-16T08:18:19.797Z,9.77
2023-04-16T08:19:51.650Z,10.95
2023-04-16T08:21:23.464Z,10.55
2023-04-16T08:22:55.395Z,9.90
2023-04-16T08:24:27.225Z,10.25
2023-04-16T08:25:59.016Z,10.38
2023-04-16T08:27:30.939Z,10.20
2023-04-16T08:29:02.826Z,10.63
2023-04-16T08:30:34.896Z,11.00
2023-04-16T08:32:07.083Z,10.48
2023-04-16T08:33:40.972Z,10.32
2023-04-16T08:35:12.766Z,10.75
2023-04-16T08:36:44.604Z,10.60
2023-04-16T08:38:16.479Z,10.30
2023-04-16T08:39:48.775Z,10.45
2023-04-16T08:41:22.425Z,11.02
2023-04-16T08:42:57.114Z,11.85
2023-04-16T08:44:34.076Z,11.50
2023-04-16T08:46:06.344Z,12.15
2023-04-16T08:47:40.909Z,11.38
2023-04-16T08:49:18.214Z,11.48
2023-04-16T08:50:53.181Z,11.68
2023-04-16T08:52:31.444Z,11.88
2023-04-16T08:54:07.703Z,11.82
2023-04-16T08:55:41.473Z,11.65
2023-04-16T08:57:18.443Z,11.70
2023-04-16T08:58:51.740Z,12.13
2023-04-16T09:00:24.109Z,13.05
2023-04-16T09:01:59.889Z,13.07
2023-04-16T09:03:36.201Z,12.68
2023-04-16T09:05:10.585Z,12.57
2023-04-16T09:06:43.719Z,11.73
2023-04-16T09:08:16.118Z,11.20
2023-04-16T09:09:50.407Z,12.23
2023-04-16T09:11:22.512Z,10.77
2023-04-16T09:12:57.598Z,11.02
2023-04-16T09:14:29.563Z,11.55
2023-04-16T09:16:01.697Z,10.55
2023-04-16T09:17:34.764Z,10.40
2023-04-16T09:19:06.576Z,10.20
2023-04-16T09:20:39.429Z,9.90
2023-04-16T09:22:11.806Z,10.25
2023-04-16T09:23:44.198Z,10.27
2023-04-16T09:25:16.399Z,9.23
2023-04-16T09:26:48.859Z,9.40
2023-04-16T09:28:41.104Z,7.57
2023-04-16T09:30:23.647Z,8.07
2023-04-16T09:32:06.065Z,8.10
2023-04-16T09:33:37.925Z,8.73
2023-04-16T09:35:09.728Z,7.10
2023-04-16T09:36:41.532Z,7.93
2023-04-16T09:38:13.732Z,8.05
2023-04-16T09:39:53.226Z,8.23
2023-04-16T09:41:29.832Z,7.90
2023-04-16T09:43:11.252Z,8.73
2023-04-16T09:44:43.060Z,7.97
2023-04-16T09:46:14.917Z,7.60
2023-04-16T09:47:46.770Z,8.15
2023-04-16T09:49:21.502Z,7.70
2023-04-16T09:50:53.381Z,8.65
2023-04-16T09:52:26.090Z,8.43
2023-04-16T09:53:57.906Z,7.47
2023-04-16T09:55:29.802Z,8.25
2023-04-16T09:57:01.665Z,7.43
2023-04-16T09:58:36.631Z,6.88
2023-04-16T10:00:10.389Z,5.72
2023-04-16T10:01:43.199Z,5.95
2023-04-16T10:03:15.160Z,5.18
2023-04-16T10:04:51.831Z,5.13
2023-04-16T10:06:27.366Z,4.90
2023-04-16T10:08:02.548Z,5.30
2023-04-16T10:09:38.603Z,5.45
2023-04-16T10:11:11.180Z,5.07
2023-04-16T10:12:43.845Z,4.93
2023-04-16T10:14:15.698Z,4.97
2023-04-16T10:15:48.476Z,4.70
2023-04-16T10:17:21.662Z,4.50
2023-04-16T10:18:54.564Z,3.85
2023-04-16T10:20:26.621Z,5.68
2023-04-16T10:21:59.155Z,3.75
2023-04-16T10:23:32.431Z,3.80
2023-04-16T10:25:05.029Z,3.42
2023-04-16T10:26:37.334Z,3.92
2023-04-16T10:28:14.189Z,3.75
2023-04-16T10:29:46.760Z,3.50
2023-04-16T10:31:18.741Z,2.88
2023-04-16T10:32:52.108Z,2.72
2023-04-16T10:34:25.074Z,2.42
2023-04-16T10:36:33.489Z,2.50
2023-04-16T10:38:27.119Z,2.42
2023-04-16T10:40:02.937Z,2.50
2023-04-16T10:41:35.274Z,3.78
2023-04-16T10:43:07.134Z,3.17
2023-04-16T10:44:43.495Z,2.75
2023-04-16T10:46:40.191Z,2.50
2023-04-16T10:48:14.957Z,2.60
2023-04-16T10:49:48.502Z,2.88
2023-04-16T10:51:36.595Z,3.38
2023-04-16T10:53:27.816Z,2.15
2023-04-16T10:55:01.228Z,2.03
2023-04-16T10:56:35.531Z,2.28
2023-04-16T10:58:32.665Z,2.60
2023-04-16T11:00:22.398Z,2.28
2023-04-16T11:01:56.028Z,2.50
2023-04-16T11:03:32.365Z,2.72
2023-04-16T11:05:05.440Z,2.72
2023-04-16T11:06:37.604Z,3.00
2023-04-16T11:08:19.241Z,2.60
2023-04-16T11:10:07.391Z,2.65
2023-04-16T11:11:39.826Z,2.78
2023-04-16T11:13:13.171Z,2.78
2023-04-16T11:14:50.915Z,2.97
2023-04-16T11:16:22.775Z,2.40
2023-04-16T11:17:54.787Z,2.88
2023-04-16T11:19:27.212Z,2.60
2023-04-16T11:20:59.133Z,2.83
2023-04-16T11:22:30.983Z,2.72
2023-04-16T11:24:02.748Z,3.13
2023-04-16T11:25:34.576Z,3.28
2023-04-16T11:27:06.821Z,2.83
2023-04-16T11:28:39.657Z,2.83
2023-04-16T11:30:11.701Z,4.13
2023-04-16T11:31:50.496Z,4.47
2023-04-16T11:33:22.400Z,5.22
2023-04-16T11:34:54.310Z,5.90
2023-04-16T11:36:27.940Z,5.05
2023-04-16T11:37:59.880Z,5.78
2023-04-16T11:39:31.679Z,5.95
2023-04-16T11:41:03.775Z,6.22
2023-04-16T11:42:40.780Z,5.35
2023-04-16T11:44:24.403Z,4.88
2023-04-16T11:45:57.168Z,4.70
2023-04-16T11:47:32.040Z,4.75
2023-04-16T11:49:04.041Z,4.22
2023-04-16T11:50:36.112Z,4.50
2023-04-16T11:52:07.914Z,4.05
2023-04-16T11:53:47.087Z,4.20
2023-04-16T11:55:20.175Z,4.20
2023-04-16T11:56:53.551Z,4.05
2023-04-16T11:58:25.452Z,3.80
2023-04-16T12:00:01.762Z,3.75
2023-04-16T12:01:58.025Z,3.72
2023-04-16T12:03:42.716Z,3.58
2023-04-16T12:05:32.171Z,4.50
2023-04-16T12:07:13.357Z,4.22
2023-04-16T12:10:16.908Z,3.47
2023-04-16T12:11:48.719Z,4.13
2023-04-16T12:13:21.101Z,3.90
2023-04-16T12:14:54.816Z,3.90
2023-04-16T12:16:27.502Z,3.80
2023-04-16T12:18:09.724Z,3.45
2023-04-16T12:19:59.524Z,3.60
2023-04-16T12:21:46.006Z,3.33
2023-04-16T12:23:23.775Z,3.88
2023-04-16T12:24:58.490Z,4.10
2023-04-16T12:26:38.551Z,4.93
2023-04-16T12:28:10.786Z,4.22
2023-04-16T12:29:42.626Z,4.05
2023-04-16T12:31:15.196Z,3.65
2023-04-16T12:32:48.971Z,3.70
2023-04-16T12:34:21.792Z,3.67
2023-04-16T12:36:01.994Z,3.10
2023-04-16T12:37:35.536Z,3.65
2023-04-16T12:39:08.464Z,3.22
2023-04-16T12:40:40.722Z,3.67
2023-04-16T12:42:13.025Z,3.55
2023-04-16T12:43:44.868Z,3.40
2023-04-16T12:45:16.760Z,3.50
2023-04-16T12:46:48.612Z,3.40
2023-04-16T12:48:20.485Z,4.20
2023-04-16T12:49:52.286Z,3.78
2023-04-16T12:51:24.240Z,3.50
2023-04-16T12:52:56.988Z,3.25
2023-04-16T12:54:31.256Z,3.40
2023-04-16T12:56:03.055Z,3.95
2023-04-16T12:57:34.818Z,2.97
2023-04-16T12:59:06.651Z,3.53
2023-04-16T13:00:38.468Z,3.63
2023-04-16T13:02:10.362Z,4.00
2023-04-16T13:03:42.397Z,4.25
2023-04-16T13:05:16.780Z,4.45
2023-04-16T13:06:48.574Z,3.78
2023-04-16T13:08:20.585Z,4.20
2023-04-16T13:09:52.870Z,4.35
2023-04-16T13:11:24.982Z,3.60
2023-04-16T13:12:57.138Z,3.72
2023-04-16T13:14:28.932Z,4.05
2023-04-16T13:16:00.778Z,4.40
2023-04-16T13:17:32.628Z,4.22
2023-04-16T13:19:05.078Z,3.60
2023-04-16T13:20:36.901Z,4.70
2023-04-16T13:22:08.706Z,4.22
2023-04-16T13:23:40.860Z,4.60
2023-04-16T13:25:12.756Z,3.88
2023-04-16T13:26:44.703Z,4.35
2023-04-16T13:28:16.646Z,5.28
2023-04-16T13:29:48.479Z,4.05
2023-04-16T13:31:22.422Z,4.82
2023-04-16T13:32:54.330Z,4.20
2023-04-16T13:34:26.186Z,3.50
2023-04-16T13:35:57.997Z,3.50
2023-04-16T13:37:29.794Z,3.22
2023-04-16T13:39:03.155Z,3.28
2023-04-16T13:40:34.970Z,3.47
2023-04-16T13:42:06.859Z,4.53
2023-04-16T13:43:38.713Z,3.45
2023-04-16T13:45:10.581Z,3.17
2023-04-16T13:46:47.722Z,3.35
2023-04-16T13:48:19.691Z,3.30
2023-04-16T13:49:51.484Z,4.00
2023-04-16T13:51:23.404Z,3.30
2023-04-16T13:52:55.383Z,3.63
2023-04-16T13:54:27.201Z,2.88
2023-04-16T13:55:59.054Z,2.88
2023-04-16T13:57:31.323Z,3.17
2023-04-16T13:59:03.131Z,2.85
2023-04-16T14:00:35.006Z,3.25
2023-04-16T14:02:06.950Z,3.58
2023-04-16T14:03:40.752Z,3.22
2023-04-16T14:05:12.647Z,2.92
2023-04-16T14:06:44.424Z,3.42
2023-04-16T14:08:17.178Z,3.38
2023-04-16T14:09:49.731Z,2.90
2023-04-16T14:11:21.515Z,2.83
2023-04-16T14:12:53.345Z,2.90
2023-04-16T14:14:26.118Z,3.50
2023-04-16T14:15:58.183Z,2.70
2023-04-16T14:17:30.310Z,2.67
2023-04-16T14:19:02.146Z,2.60
2023-04-16T14:20:33.949Z,2.50
2023-04-16T14:22:07.467Z,2.40
2023-04-16T14:23:40.560Z,2.50
2023-04-16T14:25:12.678Z,2.58
2023-04-16T14:26:44.521Z,2.90
2023-04-16T14:28:16.696Z,2.53
2023-04-16T14:29:48.512Z,2.65
2023-04-16T14:31:20.822Z,2.83
2023-04-16T14:32:52.918Z,2.90
2023-04-16T14:34:24.810Z,3.50
2023-04-16T14:35:56.674Z,2.58
2023-04-16T14:37:28.763Z,2.30
2023-04-16T14:39:00.778Z,2.38
2023-04-16T14:40:32.705Z,2.35
2023-04-16T14:42:05.160Z,2.63
2023-04-16T14:43:38.667Z,2.20
2023-04-16T14:45:12.322Z,1.80
2023-04-16T14:46:44.849Z,1.60
2023-04-16T14:48:16.906Z,1.90
2023-04-16T14:49:48.753Z,2.00
2023-04-16T14:51:20.634Z,1.55
2023-04-16T14:52:54.415Z,2.03
2023-04-16T14:54:26.691Z,2.10
2023-04-16T14:55:59.191Z,1.60
2023-04-16T14:57:31.139Z,1.90
2023-04-16T14:59:02.978Z,1.63
2023-04-16T15:00:35.696Z,1.58
2023-04-16T15:02:07.647Z,1.33
2023-04-16T15:03:39.602Z,1.95
2023-04-16T15:05:11.517Z,2.05
2023-04-16T15:06:43.386Z,2.42
2023-04-16T15:08:16.331Z,1.60
2023-04-16T15:09:48.172Z,1.77
2023-04-16T15:11:20.150Z,1.58
2023-04-16T15:12:51.936Z,1.88
2023-04-16T15:14:24.030Z,1.85
2023-04-16T15:15:55.832Z,1.95
2023-04-16T15:17:27.722Z,1.65
2023-04-16T15:18:59.597Z,1.73
2023-04-16T15:20:31.521Z,2.03
2023-04-16T15:22:03.344Z,2.10
2023-04-16T15:23:35.164Z,1.67
2023-04-16T15:25:07.706Z,1.63
2023-04-16T15:26:39.665Z,2.15
2023-04-16T15:28:11.467Z,1.88
2023-04-16T15:29:45.415Z,2.13
2023-04-16T15:31:17.273Z,1.70
2023-04-16T15:32:49.196Z,2.13
2023-04-16T15:34:21.318Z,2.38
2023-04-16T15:35:53.196Z,2.38
2023-04-16T15:37:24.994Z,1.85
2023-04-16T15:38:56.801Z,2.50
2023-04-16T15:40:28.582Z,2.17
2023-04-16T15:42:03.490Z,2.22
2023-04-16T15:43:36.795Z,2.42
2023-04-16T15:45:08.873Z,2.83
2023-04-16T15:46:40.724Z,2.42
2023-04-16T15:48:12.594Z,2.63
2023-04-16T15:49:44.504Z,2.28
2023-04-16T15:51:16.546Z,3.10
2023-04-16T15:52:48.334Z,3.03
2023-04-16T15:54:20.302Z,3.38
2023-04-16T15:55:53.868Z,2.72
2023-04-16T15:57:25.678Z,3.55
2023-04-16T15:58:57.481Z,3.38
2023-04-16T16:00:29.281Z,3.22
2023-04-16T16:02:01.558Z,3.45
2023-04-16T16:03:36.139Z,3.08
2023-04-16T16:05:12.552Z,3.03
2023-04-16T16:06:44.387Z,3.08
2023-04-16T16:08:16.883Z,3.00
2023-04-16T16:09:49.140Z,3.90
2023-04-16T16:11:22.042Z,3.55
2023-04-16T16:12:53.977Z,3.63
2023-04-16T16:14:27.018Z,3.53
2023-04-16T16:15:59.269Z,3.97
2023-04-16T16:17:31.302Z,3.35
2023-04-16T16:19:03.132Z,3.95
2023-04-16T16:20:35.290Z,3.25
2023-04-16T16:22:07.989Z,3.58
2023-04-16T16:23:39.792Z,2.85
2023-04-16T16:25:11.653Z,3.25
2023-04-16T16:26:43.533Z,2.50
2023-04-16T16:28:15.506Z,3.22
2023-04-16T16:29:47.488Z,2.40
2023-04-16T16:31:19.524Z,3.30
2023-04-16T16:32:51.453Z,3.05
2023-04-16T16:34:23.680Z,2.53
2023-04-16T16:35:55.477Z,3.00
2023-04-16T16:37:28.874Z,2.95
2023-04-16T16:39:00.815Z,2.55
2023-04-16T16:40:32.667Z,2.70
2023-04-16T16:42:04.520Z,2.67
2023-04-16T16:43:36.925Z,4.93
2023-04-16T16:45:09.487Z,2.92
2023-04-16T16:46:41.447Z,3.20
2023-04-16T16:48:13.271Z,3.65
2023-04-16T16:49:45.664Z,3.03
2023-04-16T16:51:19.087Z,4.05
2023-04-16T16:52:51.157Z,3.88
2023-04-16T16:54:22.961Z,3.97
2023-04-16T16:55:54.828Z,3.70
2023-04-16T16:57:27.236Z,4.05
2023-04-16T16:58:59.226Z,4.35
2023-04-16T17:00:31.055Z,4.70
2023-04-16T17:02:02.957Z,4.93
2023-04-16T17:03:35.240Z,5.43
2023-04-16T17:05:07.788Z,6.38
2023-04-16T17:06:39.928Z,6.32
2023-04-16T17:08:12.242Z,5.88
2023-04-16T17:09:44.163Z,6.32
2023-04-16T17:11:16.893Z,5.68
2023-04-16T17:12:49.460Z,7.20
2023-04-16T17:14:21.247Z,6.75
2023-04-16T17:15:53.045Z,7.07
2023-04-16T17:17:27.009Z,8.50
2023-04-16T17:18:59.460Z,9.73
2023-04-16T17:20:32.694Z,9.95
2023-04-16T17:22:05.288Z,8.10
2023-04-16T17:23:37.929Z,10.20
2023-04-16T17:25:10.837Z,9.48
2023-04-16T17:26:42.833Z,8.65
2023-04-16T17:28:14.644Z,8.57
2023-04-16T17:29:46.453Z,11.32
2023-04-16T17:31:18.359Z,10.60
2023-04-16T17:32:50.263Z,10.57
2023-04-16T17:34:22.721Z,10.32
2023-04-16T17:35:54.613Z,10.30
2023-04-16T17:37:26.564Z,10.85
2023-04-16T17:38:58.708Z,10.32
2023-04-16T17:40:30.737Z,11.88
2023-04-16T17:42:04.144Z,11.85
2023-04-16T17:43:36.017Z,11.02
2023-04-16T17:45:08.294Z,11.23
2023-04-16T17:46:40.155Z,12.68
2023-04-16T17:48:12.012Z,10.75
2023-04-16T17:49:44.534Z,12.38
2023-04-16T17:51:16.727Z,12.35
2023-04-16T17:52:48.612Z,12.23
2023-04-16T17:54:20.412Z,11.77
2023-04-16T17:55:54.674Z,12.07
2023-04-16T17:57:28.500Z,11.10
2023-04-16T17:59:00.311Z,11.63
2023-04-16T18:00:32.190Z,11.27
2023-04-16T18:02:04.179Z,11.48
2023-04-16T18:03:37.360Z,11.00
2023-04-16T18:05:09.700Z,12.07
2023-04-16T18:06:44.317Z,10.40
2023-04-16T18:08:16.471Z,9.48
2023-04-16T18:09:48.398Z,8.75
2023-04-16T18:11:20.485Z,8.40
2023-04-16T18:12:52.303Z,8.20
2023-04-16T18:14:24.147Z,7.50
2023-04-16T18:15:56.248Z,6.53
2023-04-16T18:17:28.164Z,5.40
2023-04-16T18:19:00.063Z,5.68
2023-04-16T18:20:31.938Z,4.95
2023-04-16T18:22:03.742Z,4.30
2023-04-16T18:23:35.844Z,4.28
2023-04-16T18:25:08.025Z,4.10
2023-04-16T18:26:40.909Z,4.47
2023-04-16T18:28:14.328Z,3.92
2023-04-16T18:29:46.514Z,4.07
2023-04-16T18:31:21.120Z,3.50
2023-04-16T18:33:16.663Z,4.68
2023-04-16T18:34:44.996Z,3.88
2023-04-16T18:36:17.041Z,4.38
2023-04-16T18:37:48.954Z,3.40
2023-04-16T18:39:21.180Z,3.63
2023-04-16T18:40:53.140Z,3.80
2023-04-16T18:42:28.047Z,4.78
2023-04-16T18:43:59.924Z,4.85
2023-04-16T18:45:34.284Z,5.57
2023-04-16T18:47:06.436Z,4.60
2023-04-16T18:48:38.277Z,5.88
2023-04-16T18:50:10.116Z,5.60
2023-04-16T18:51:42.336Z,5.13
2023-04-16T18:53:14.181Z,5.75
2023-04-16T18:54:45.969Z,6.30
2023-04-16T18:56:17.803Z,5.70
2023-04-16T18:57:49.609Z,6.35
2023-04-16T18:59:21.624Z,6.10
2023-04-16T19:00:54.404Z,6.07
2023-04-16T19:02:26.547Z,7.28
2023-04-16T19:03:58.674Z,7.32
2023-04-16T19:05:30.730Z,6.63
2023-04-16T19:07:02.785Z,8.43
2023-04-16T19:08:34.583Z,7.93
2023-04-16T19:10:07.110Z,6.65
2023-04-16T19:11:38.920Z,6.35
2023-04-16T19:13:10.782Z,4.57
2023-04-16T19:14:42.565Z,4.57
2023-04-16T19:16:14.773Z,3.67
2023-04-16T19:17:46.852Z,5.10
2023-04-16T19:19:18.688Z,3.17
2023-04-16T19:20:50.460Z,3.22
2023-04-16T19:22:22.286Z,3.03
2023-04-16T19:23:54.162Z,3.17
2023-04-16T19:25:26.243Z,2.97
2023-04-16T19:26:58.617Z,2.90
2023-04-16T19:28:31.214Z,2.83
2023-04-16T19:30:03.729Z,3.13
2023-04-16T19:31:35.746Z,2.50
2023-04-16T19:33:07.663Z,2.55
2023-04-16T19:34:39.525Z,3.05
2023-04-16T19:36:11.365Z,3.05
2023-04-16T19:37:43.678Z,2.80
2023-04-16T19:39:15.455Z,3.22
2023-04-16T19:40:49.061Z,3.28
2023-04-16T19:42:21.019Z,2.47
2023-04-16T19:43:54.743Z,3.58
2023-04-16T19:45:27.681Z,3.22
2023-04-16T19:46:59.897Z,2.90
2023-04-16T19:48:37.165Z,3.38
2023-04-16T19:50:09.339Z,3.25
2023-04-16T19:51:41.134Z,3.33
2023-04-16T19:53:13.014Z,3.00
2023-04-16T19:54:44.933Z,4.07
2023-04-16T19:56:17.341Z,3.40
2023-04-16T19:57:49.192Z,3.60
2023-04-16T19:59:20.992Z,3.28
2023-04-16T20:00:52.912Z,3.58
2023-04-16T20:02:24.823Z,3.95
2023-04-16T20:03:56.896Z,3.55
2023-04-16T20:05:28.864Z,3.85
2023-04-16T20:07:00.693Z,3.72
2023-04-16T20:08:32.461Z,3.50
2023-04-16T20:10:04.611Z,3.83
2023-04-16T20:11:36.845Z,3.85
2023-04-16T20:13:12.156Z,3.08
2023-04-16T20:14:44.088Z,4.20
2023-04-16T20:16:16.039Z,3.95
2023-04-16T20:17:47.988Z,3.20
2023-04-16T20:19:19.850Z,3.20
2023-04-16T20:20:51.655Z,3.63
2023-04-16T20:22:23.469Z,3.60
2023-04-16T20:23:55.301Z,3.80
2023-04-16T20:25:27.399Z,3.67
2023-04-16T20:26:59.209Z,3.92
2023-04-16T20:28:31.003Z,4.00
2023-04-16T20:30:03.810Z,3.80
2023-04-16T20:31:35.693Z,4.63